CheckWX is a tool to help pilots better visualize weather data.  It is not intended as a substitute for an official pre-flight weather briefing.

07:11:02 UTC

HAAB TAF
Addis Ababa Bole International Airport
Addis Ababa, Ethiopia
TAF HAAB 192130Z 1922/2104 32006KT 9999 BKN040 SCT080 TEMPO 2005/2010 18010KT 9000 -HZ BKN030 BKN070 TEMPO 2011/2014 35004KT 9000 -SHRA BKN030 OVC060

Jun-19@
22:00 UTC

Jun-19 @ 22:00 UTC

Jun-21@
04:00 UTC

Jun-21 @ 04:00 UTC

TAF HAAB 192130Z 1922/2104 32006KT 9999 BKN040 SCT080
Wind
  • 320° at 6 KTS
Cloud Levels
  • Broken at 4,000' AGL
  • Scattered at 8,000' AGL

Jun-20@
05:00 UTC

Jun-20 @ 05:00 UTC

Jun-20@
10:00 UTC

Jun-20 @ 10:00 UTC

TEMPO 2005/2010 18010KT 9000 -HZ BKN030 BKN070

Temporary

Temporary Changes expected for less than half the time period

Wind
  • 180° at 10 KTS
Conditions
Light Haze
Cloud Levels
  • Broken at 3,000' AGL
  • Broken at 7,000' AGL

Jun-20@
11:00 UTC

Jun-20 @ 11:00 UTC

Jun-20@
14:00 UTC

Jun-20 @ 14:00 UTC

TEMPO 2011/2014 35004KT 9000 -SHRA BKN030 OVC060

Temporary

Temporary Changes expected for less than half the time period

Wind
  • 350° at 4 KTS
Conditions
Light Rain
Cloud Levels
  • Broken at 3,000' AGL
  • Overcast at 6,000' AGL